sensor_id;sensor_type;location;lat;lon;timestamp;temperature;humidity
35563;DHT22;21665;40.108;18.302;2023-04-19T00:02:03;11.20;99.90
35563;DHT22;21665;40.108;18.302;2023-04-19T00:04:33;11.20;99.90
35563;DHT22;21665;40.108;18.302;2023-04-19T00:06:59;11.10;99.90
35563;DHT22;21665;40.108;18.302;2023-04-19T00:09:25;11.10;99.90
35563;DHT22;21665;40.108;18.302;2023-04-19T00:11:52;11.20;99.90
35563;DHT22;21665;40.108;18.302;2023-04-19T00:14:19;11.20;99.90
35563;DHT22;21665;40.108;18.302;2023-04-19T00:16:45;11.10;99.90
35563;DHT22;21665;40.108;18.302;2023-04-19T00:19:12;10.90;99.90
35563;DHT22;21665;40.108;18.302;2023-04-19T00:21:38;10.80;99.90
35563;DHT22;21665;40.108;18.302;2023-04-19T00:24:05;10.70;99.90
35563;DHT22;21665;40.108;18.302;2023-04-19T00:26:32;10.60;99.90
35563;DHT22;21665;40.108;18.302;2023-04-19T00:28:58;10.60;99.90
35563;DHT22;21665;40.108;18.302;2023-04-19T00:31:25;10.60;99.90
35563;DHT22;21665;40.108;18.302;2023-04-19T00:33:51;10.60;99.90
35563;DHT22;21665;40.108;18.302;2023-04-19T00:36:18;10.60;99.90
35563;DHT22;21665;40.108;18.302;2023-04-19T00:38:49;10.70;99.90
35563;DHT22;21665;40.108;18.302;2023-04-19T00:41:16;10.70;99.90
35563;DHT22;21665;40.108;18.302;2023-04-19T00:43:42;10.60;99.90
35563;DHT22;21665;40.108;18.302;2023-04-19T00:46:15;10.50;99.90
35563;DHT22;21665;40.108;18.302;2023-04-19T00:48:42;10.50;99.90
35563;DHT22;21665;40.108;18.302;2023-04-19T00:51:11;10.50;99.90
35563;DHT22;21665;40.108;18.302;2023-04-19T00:53:39;10.50;99.90
35563;DHT22;21665;40.108;18.302;2023-04-19T00:56:07;10.50;99.90
35563;DHT22;21665;40.108;18.302;2023-04-19T00:58:36;10.50;99.90
35563;DHT22;21665;40.108;18.302;2023-04-19T01:01:03;10.50;99.90
35563;DHT22;21665;40.108;18.302;2023-04-19T01:03:31;10.50;99.90
35563;DHT22;21665;40.108;18.302;2023-04-19T01:05:59;10.40;99.90
35563;DHT22;21665;40.108;18.302;2023-04-19T01:08:26;10.40;99.90
35563;DHT22;21665;40.108;18.302;2023-04-19T01:10:53;10.50;99.90
35563;DHT22;21665;40.108;18.302;2023-04-19T01:13:22;10.50;99.90
35563;DHT22;21665;40.108;18.302;2023-04-19T01:15:49;10.50;99.90
35563;DHT22;21665;40.108;18.302;2023-04-19T01:18:16;10.50;99.90
35563;DHT22;21665;40.108;18.302;2023-04-19T01:20:44;10.50;99.90
35563;DHT22;21665;40.108;18.302;2023-04-19T01:23:11;10.60;99.90
35563;DHT22;21665;40.108;18.302;2023-04-19T01:25:37;10.60;99.90
35563;DHT22;21665;40.108;18.302;2023-04-19T01:28:04;10.60;99.90
35563;DHT22;21665;40.108;18.302;2023-04-19T01:30:31;10.60;99.90
35563;DHT22;21665;40.108;18.302;2023-04-19T01:32:57;10.60;99.90
35563;DHT22;21665;40.108;18.302;2023-04-19T01:35:24;10.60;99.90
35563;DHT22;21665;40.108;18.302;2023-04-19T01:37:50;10.50;99.90
35563;DHT22;21665;40.108;18.302;2023-04-19T01:40:22;10.40;99.90
35563;DHT22;21665;40.108;18.302;2023-04-19T01:42:49;10.40;99.90
35563;DHT22;21665;40.108;18.302;2023-04-19T01:45:16;10.30;99.90
35563;DHT22;21665;40.108;18.302;2023-04-19T01:47:43;10.30;99.90
35563;DHT22;21665;40.108;18.302;2023-04-19T01:50:09;10.30;99.90
35563;DHT22;21665;40.108;18.302;2023-04-19T01:52:36;10.20;99.90
35563;DHT22;21665;40.108;18.302;2023-04-19T01:55:04;10.20;99.90
35563;DHT22;21665;40.108;18.302;2023-04-19T01:57:31;10.20;99.90
35563;DHT22;21665;40.108;18.302;2023-04-19T01:59:58;10.10;99.90
35563;DHT22;21665;40.108;18.302;2023-04-19T02:02:25;10.10;99.90
35563;DHT22;21665;40.108;18.302;2023-04-19T02:04:53;10.20;99.90
35563;DHT22;21665;40.108;18.302;2023-04-19T02:07:20;10.20;99.90
35563;DHT22;21665;40.108;18.302;2023-04-19T02:09:46;10.30;99.90
35563;DHT22;21665;40.108;18.302;2023-04-19T02:12:13;10.30;99.90
35563;DHT22;21665;40.108;18.302;2023-04-19T02:14:43;10.30;99.90
35563;DHT22;21665;40.108;18.302;2023-04-19T02:17:09;10.30;99.90
35563;DHT22;21665;40.108;18.302;2023-04-19T02:19:38;10.30;99.90
35563;DHT22;21665;40.108;18.302;2023-04-19T02:22:05;10.30;99.90
35563;DHT22;21665;40.108;18.302;2023-04-19T02:24:32;10.40;99.90
35563;DHT22;21665;40.108;18.302;2023-04-19T02:27:01;10.40;99.90
35563;DHT22;21665;40.108;18.302;2023-04-19T02:29:28;10.50;99.90
35563;DHT22;21665;40.108;18.302;2023-04-19T02:31:54;10.60;99.90
35563;DHT22;21665;40.108;18.302;2023-04-19T02:34:21;10.70;99.90
35563;DHT22;21665;40.108;18.302;2023-04-19T02:36:47;10.70;99.90
35563;DHT22;21665;40.108;18.302;2023-04-19T02:39:14;10.70;99.90
35563;DHT22;21665;40.108;18.302;2023-04-19T02:41:42;10.80;99.90
35563;DHT22;21665;40.108;18.302;2023-04-19T02:44:11;10.80;99.90
35563;DHT22;21665;40.108;18.302;2023-04-19T02:46:38;10.90;99.90
35563;DHT22;21665;40.108;18.302;2023-04-19T02:49:05;11.00;99.90
35563;DHT22;21665;40.108;18.302;2023-04-19T02:51:31;11.00;99.90
35563;DHT22;21665;40.108;18.302;2023-04-19T02:53:58;11.10;99.90
35563;DHT22;21665;40.108;18.302;2023-04-19T02:56:25;11.10;99.90
35563;DHT22;21665;40.108;18.302;2023-04-19T02:58:52;11.10;99.90
35563;DHT22;21665;40.108;18.302;2023-04-19T03:01:20;11.10;99.90
35563;DHT22;21665;40.108;18.302;2023-04-19T03:03:46;11.10;99.90
35563;DHT22;21665;40.108;18.302;2023-04-19T03:06:12;11.20;99.90
35563;DHT22;21665;40.108;18.302;2023-04-19T03:08:39;11.10;99.90
35563;DHT22;21665;40.108;18.302;2023-04-19T03:11:06;11.20;99.90
35563;DHT22;21665;40.108;18.302;2023-04-19T03:13:33;11.20;99.90
35563;DHT22;21665;40.108;18.302;2023-04-19T03:15:59;11.20;99.90
35563;DHT22;21665;40.108;18.302;2023-04-19T03:18:28;11.20;99.90
35563;DHT22;21665;40.108;18.302;2023-04-19T03:21:03;11.20;99.90
35563;DHT22;21665;40.108;18.302;2023-04-19T03:23:37;11.20;99.90
35563;DHT22;21665;40.108;18.302;2023-04-19T03:26:03;11.30;99.90
35563;DHT22;21665;40.108;18.302;2023-04-19T03:28:56;11.20;99.90
35563;DHT22;21665;40.108;18.302;2023-04-19T03:31:37;11.20;99.90
35563;DHT22;21665;40.108;18.302;2023-04-19T03:34:04;11.20;99.90
35563;DHT22;21665;40.108;18.302;2023-04-19T03:36:38;11.20;99.90
35563;DHT22;21665;40.108;18.302;2023-04-19T03:39:05;11.20;99.90
35563;DHT22;21665;40.108;18.302;2023-04-19T03:41:32;11.10;99.90
35563;DHT22;21665;40.108;18.302;2023-04-19T03:44:13;11.10;99.90
35563;DHT22;21665;40.108;18.302;2023-04-19T03:46:43;11.00;99.90
35563;DHT22;21665;40.108;18.302;2023-04-19T03:49:15;11.00;99.90
35563;DHT22;21665;40.108;18.302;2023-04-19T03:51:45;11.00;99.90
35563;DHT22;21665;40.108;18.302;2023-04-19T03:54:11;10.90;99.90
35563;DHT22;21665;40.108;18.302;2023-04-19T03:56:38;10.90;99.90
35563;DHT22;21665;40.108;18.302;2023-04-19T03:59:05;10.90;99.90
35563;DHT22;21665;40.108;18.302;2023-04-19T04:01:34;10.80;99.90
35563;DHT22;21665;40.108;18.302;2023-04-19T04:04:07;10.80;99.90
35563;DHT22;21665;40.108;18.302;2023-04-19T04:06:47;10.70;99.90
35563;DHT22;21665;40.108;18.302;2023-04-19T04:09:16;10.70;99.90
35563;DHT22;21665;40.108;18.302;2023-04-19T04:11:43;10.70;99.90
35563;DHT22;21665;40.108;18.302;2023-04-19T04:14:10;10.70;99.90
35563;DHT22;21665;40.108;18.302;2023-04-19T04:16:38;10.70;99.90
35563;DHT22;21665;40.108;18.302;2023-04-19T04:19:05;10.80;99.90
35563;DHT22;21665;40.108;18.302;2023-04-19T04:21:35;10.80;99.90
35563;DHT22;21665;40.108;18.302;2023-04-19T04:24:03;10.90;99.90
35563;DHT22;21665;40.108;18.302;2023-04-19T04:26:36;10.90;99.90
35563;DHT22;21665;40.108;18.302;2023-04-19T04:29:27;11.00;99.90
35563;DHT22;21665;40.108;18.302;2023-04-19T04:31:57;11.00;99.90
35563;DHT22;21665;40.108;18.302;2023-04-19T04:34:30;11.10;99.90
35563;DHT22;21665;40.108;18.302;2023-04-19T04:37:06;11.10;99.90
35563;DHT22;21665;40.108;18.302;2023-04-19T04:39:35;11.10;99.90
35563;DHT22;21665;40.108;18.302;2023-04-19T04:42:05;11.30;99.90
35563;DHT22;21665;40.108;18.302;2023-04-19T04:44:39;11.30;99.90
35563;DHT22;21665;40.108;18.302;2023-04-19T04:47:11;11.40;99.90
35563;DHT22;21665;40.108;18.302;2023-04-19T04:49:43;11.40;99.90
35563;DHT22;21665;40.108;18.302;2023-04-19T04:52:12;11.40;99.90
35563;DHT22;21665;40.108;18.302;2023-04-19T04:54:52;11.50;99.90
35563;DHT22;21665;40.108;18.302;2023-04-19T04:57:25;11.50;99.90
35563;DHT22;21665;40.108;18.302;2023-04-19T04:59:52;11.50;99.90
35563;DHT22;21665;40.108;18.302;2023-04-19T05:02:20;11.50;99.90
35563;DHT22;21665;40.108;18.302;2023-04-19T05:04:47;11.60;99.90
35563;DHT22;21665;40.108;18.302;2023-04-19T05:07:14;11.60;99.90
35563;DHT22;21665;40.108;18.302;2023-04-19T05:09:41;11.70;99.90
35563;DHT22;21665;40.108;18.302;2023-04-19T05:12:08;11.90;99.90
35563;DHT22;21665;40.108;18.302;2023-04-19T05:14:34;12.00;99.90
35563;DHT22;21665;40.108;18.302;2023-04-19T05:17:02;12.90;99.90
35563;DHT22;21665;40.108;18.302;2023-04-19T05:19:29;14.40;99.90
35563;DHT22;21665;40.108;18.302;2023-04-19T05:22:01;15.60;99.90
35563;DHT22;21665;40.108;18.302;2023-04-19T05:24:28;16.30;99.90
35563;DHT22;21665;40.108;18.302;2023-04-19T05:26:55;16.80;99.90
35563;DHT22;21665;40.108;18.302;2023-04-19T05:29:24;17.40;99.90
35563;DHT22;21665;40.108;18.302;2023-04-19T05:31:57;17.90;99.90
35563;DHT22;21665;40.108;18.302;2023-04-19T05:34:31;18.80;99.90
35563;DHT22;21665;40.108;18.302;2023-04-19T05:37:00;19.00;99.90
35563;DHT22;21665;40.108;18.302;2023-04-19T05:39:28;19.60;99.90
35563;DHT22;21665;40.108;18.302;2023-04-19T05:41:54;20.70;99.90
35563;DHT22;21665;40.108;18.302;2023-04-19T05:44:21;21.10;99.90
35563;DHT22;21665;40.108;18.302;2023-04-19T05:46:47;21.10;99.90
35563;DHT22;21665;40.108;18.302;2023-04-19T05:49:22;21.10;99.90
35563;DHT22;21665;40.108;18.302;2023-04-19T05:52:10;21.30;99.90
35563;DHT22;21665;40.108;18.302;2023-04-19T05:54:48;21.00;99.90
35563;DHT22;21665;40.108;18.302;2023-04-19T05:57:14;21.50;99.90
35563;DHT22;21665;40.108;18.302;2023-04-19T05:59:41;21.10;99.90
35563;DHT22;21665;40.108;18.302;2023-04-19T06:02:08;20.80;99.90
35563;DHT22;21665;40.108;18.302;2023-04-19T06:04:35;20.90;99.90
35563;DHT22;21665;40.108;18.302;2023-04-19T06:07:02;21.50;99.90
35563;DHT22;21665;40.108;18.302;2023-04-19T06:09:29;21.50;99.90
35563;DHT22;21665;40.108;18.302;2023-04-19T06:11:55;21.40;99.90
35563;DHT22;21665;40.108;18.302;2023-04-19T06:14:24;21.60;99.90
35563;DHT22;21665;40.108;18.302;2023-04-19T06:16:51;21.70;99.90
35563;DHT22;21665;40.108;18.302;2023-04-19T06:19:18;21.80;99.90
35563;DHT22;21665;40.108;18.302;2023-04-19T06:21:44;21.00;99.90
35563;DHT22;21665;40.108;18.302;2023-04-19T06:24:11;20.80;99.90
35563;DHT22;21665;40.108;18.302;2023-04-19T06:26:37;20.60;99.90
35563;DHT22;21665;40.108;18.302;2023-04-19T06:29:07;20.70;99.90
35563;DHT22;21665;40.108;18.302;2023-04-19T06:31:34;20.30;99.90
35563;DHT22;21665;40.108;18.302;2023-04-19T06:34:00;19.90;99.90
35563;DHT22;21665;40.108;18.302;2023-04-19T06:36:27;19.60;99.90
35563;DHT22;21665;40.108;18.302;2023-04-19T06:38:53;20.10;99.90
35563;DHT22;21665;40.108;18.302;2023-04-19T06:41:20;20.00;99.90
35563;DHT22;21665;40.108;18.302;2023-04-19T06:43:48;19.40;99.90
35563;DHT22;21665;40.108;18.302;2023-04-19T06:46:14;18.90;99.90
35563;DHT22;21665;40.108;18.302;2023-04-19T06:48:41;18.20;99.90
35563;DHT22;21665;40.108;18.302;2023-04-19T06:51:07;18.30;99.90
35563;DHT22;21665;40.108;18.302;2023-04-19T18:11:03;13.40;99.90
35563;DHT22;21665;40.108;18.302;2023-04-19T18:13:29;13.30;99.90
35563;DHT22;21665;40.108;18.302;2023-04-19T18:15:56;13.20;99.90
35563;DHT22;21665;40.108;18.302;2023-04-19T18:18:22;13.10;99.90
35563;DHT22;21665;40.108;18.302;2023-04-19T18:20:49;13.00;99.90
35563;DHT22;21665;40.108;18.302;2023-04-19T18:23:15;13.00;99.90
35563;DHT22;21665;40.108;18.302;2023-04-19T18:25:41;13.00;99.90
35563;DHT22;21665;40.108;18.302;2023-04-19T18:28:08;12.90;99.90
35563;DHT22;21665;40.108;18.302;2023-04-19T18:30:34;12.90;99.90
35563;DHT22;21665;40.108;18.302;2023-04-19T18:33:01;12.90;99.90
35563;DHT22;21665;40.108;18.302;2023-04-19T18:35:27;12.80;99.90
35563;DHT22;21665;40.108;18.302;2023-04-19T18:37:53;12.70;99.90
35563;DHT22;21665;40.108;18.302;2023-04-19T18:40:20;12.60;99.90
35563;DHT22;21665;40.108;18.302;2023-04-19T18:42:46;12.50;99.90
35563;DHT22;21665;40.108;18.302;2023-04-19T18:45:12;12.50;99.90
35563;DHT22;21665;40.108;18.302;2023-04-19T18:47:39;12.40;99.90
35563;DHT22;21665;40.108;18.302;2023-04-19T18:50:09;12.40;99.90
35563;DHT22;21665;40.108;18.302;2023-04-19T18:52:36;12.40;99.90
35563;DHT22;21665;40.108;18.302;2023-04-19T18:55:04;12.40;99.90
35563;DHT22;21665;40.108;18.302;2023-04-19T18:57:31;12.40;99.90
35563;DHT22;21665;40.108;18.302;2023-04-19T18:59:58;12.40;99.90
35563;DHT22;21665;40.108;18.302;2023-04-19T19:02:25;12.50;99.90
35563;DHT22;21665;40.108;18.302;2023-04-19T19:04:51;12.40;99.90
35563;DHT22;21665;40.108;18.302;2023-04-19T19:07:18;12.30;99.90
35563;DHT22;21665;40.108;18.302;2023-04-19T19:09:44;12.30;99.90
35563;DHT22;21665;40.108;18.302;2023-04-19T19:12:11;12.20;99.90
35563;DHT22;21665;40.108;18.302;2023-04-19T19:14:37;12.20;99.90
35563;DHT22;21665;40.108;18.302;2023-04-19T19:17:05;12.10;99.90
35563;DHT22;21665;40.108;18.302;2023-04-19T19:19:31;12.10;99.90
35563;DHT22;21665;40.108;18.302;2023-04-19T19:21:58;12.00;99.90
35563;DHT22;21665;40.108;18.302;2023-04-19T19:24:24;12.00;99.90
35563;DHT22;21665;40.108;18.302;2023-04-19T19:26:51;12.00;99.90
35563;DHT22;21665;40.108;18.302;2023-04-19T19:29:18;12.00;99.90
35563;DHT22;21665;40.108;18.302;2023-04-19T19:31:45;12.10;99.90
35563;DHT22;21665;40.108;18.302;2023-04-19T19:34:11;12.00;99.90
35563;DHT22;21665;40.108;18.302;2023-04-19T19:36:39;12.00;99.90
35563;DHT22;21665;40.108;18.302;2023-04-19T19:39:05;11.90;99.90
35563;DHT22;21665;40.108;18.302;2023-04-19T19:41:35;12.00;99.90
35563;DHT22;21665;40.108;18.302;2023-04-19T19:44:02;12.00;99.90
35563;DHT22;21665;40.108;18.302;2023-04-19T19:46:29;12.10;99.90
35563;DHT22;21665;40.108;18.302;2023-04-19T19:48:57;12.20;99.90
35563;DHT22;21665;40.108;18.302;2023-04-19T19:51:23;12.30;99.90
35563;DHT22;21665;40.108;18.302;2023-04-19T19:53:50;12.30;99.90
35563;DHT22;21665;40.108;18.302;2023-04-19T19:56:16;12.30;99.90
35563;DHT22;21665;40.108;18.302;2023-04-19T19:58:43;12.10;99.90
35563;DHT22;21665;40.108;18.302;2023-04-19T20:01:09;12.10;99.90
35563;DHT22;21665;40.108;18.302;2023-04-19T20:03:36;12.00;99.90
35563;DHT22;21665;40.108;18.302;2023-04-19T20:06:12;12.00;99.90
35563;DHT22;21665;40.108;18.302;2023-04-19T20:08:40;11.90;99.90
35563;DHT22;21665;40.108;18.302;2023-04-19T20:11:12;11.80;99.90
35563;DHT22;21665;40.108;18.302;2023-04-19T20:13:38;11.70;99.90
35563;DHT22;21665;40.108;18.302;2023-04-19T20:16:05;11.60;99.90
35563;DHT22;21665;40.108;18.302;2023-04-19T20:18:32;11.60;99.90
35563;DHT22;21665;40.108;18.302;2023-04-19T20:21:03;11.60;99.90
35563;DHT22;21665;40.108;18.302;2023-04-19T20:23:29;11.70;99.90
35563;DHT22;21665;40.108;18.302;2023-04-19T20:25:56;11.70;99.90
35563;DHT22;21665;40.108;18.302;2023-04-19T20:28:24;11.80;99.90
35563;DHT22;21665;40.108;18.302;2023-04-19T20:30:51;11.90;99.90
35563;DHT22;21665;40.108;18.302;2023-04-19T20:33:17;11.80;99.90
35563;DHT22;21665;40.108;18.302;2023-04-19T20:35:44;11.70;99.90
35563;DHT22;21665;40.108;18.302;2023-04-19T20:38:11;11.70;99.90
35563;DHT22;21665;40.108;18.302;2023-04-19T20:40:37;11.60;99.90
35563;DHT22;21665;40.108;18.302;2023-04-19T20:43:04;11.60;99.90
35563;DHT22;21665;40.108;18.302;2023-04-19T20:45:31;11.50;99.90
35563;DHT22;21665;40.108;18.302;2023-04-19T20:47:58;11.50;99.90
35563;DHT22;21665;40.108;18.302;2023-04-19T20:50:24;11.40;99.90
35563;DHT22;21665;40.108;18.302;2023-04-19T20:52:51;11.40;99.90
35563;DHT22;21665;40.108;18.302;2023-04-19T20:55:19;11.40;99.90
35563;DHT22;21665;40.108;18.302;2023-04-19T20:57:49;11.30;99.90
35563;DHT22;21665;40.108;18.302;2023-04-19T21:00:16;11.30;99.90
35563;DHT22;21665;40.108;18.302;2023-04-19T21:02:46;11.20;99.90
35563;DHT22;21665;40.108;18.302;2023-04-19T21:05:16;11.20;99.90
35563;DHT22;21665;40.108;18.302;2023-04-19T21:07:42;11.20;99.90
35563;DHT22;21665;40.108;18.302;2023-04-19T21:10:10;11.10;99.90
35563;DHT22;21665;40.108;18.302;2023-04-19T21:12:40;11.10;99.90
35563;DHT22;21665;40.108;18.302;2023-04-19T21:15:07;11.00;99.90
35563;DHT22;21665;40.108;18.302;2023-04-19T21:17:39;11.00;99.90
35563;DHT22;21665;40.108;18.302;2023-04-19T21:20:09;11.00;99.90
35563;DHT22;21665;40.108;18.302;2023-04-19T21:22:43;10.90;99.90
35563;DHT22;21665;40.108;18.302;2023-04-19T21:25:14;10.80;99.90
35563;DHT22;21665;40.108;18.302;2023-04-19T21:27:43;10.80;99.90
35563;DHT22;21665;40.108;18.302;2023-04-19T21:30:10;10.70;99.90
35563;DHT22;21665;40.108;18.302;2023-04-19T21:32:36;10.60;99.90
35563;DHT22;21665;40.108;18.302;2023-04-19T21:35:02;10.60;99.90
35563;DHT22;21665;40.108;18.302;2023-04-19T21:37:29;10.50;99.90
35563;DHT22;21665;40.108;18.302;2023-04-19T21:39:56;10.50;99.90
35563;DHT22;21665;40.108;18.302;2023-04-19T21:42:25;10.50;99.90
35563;DHT22;21665;40.108;18.302;2023-04-19T21:44:51;10.50;99.90
35563;DHT22;21665;40.108;18.302;2023-04-19T21:47:17;10.50;99.90
35563;DHT22;21665;40.108;18.302;2023-04-19T21:49:44;10.40;99.90
35563;DHT22;21665;40.108;18.302;2023-04-19T21:52:12;10.40;99.90
35563;DHT22;21665;40.108;18.302;2023-04-19T21:54:38;10.40;99.90
35563;DHT22;21665;40.108;18.302;2023-04-19T21:57:05;10.40;99.90
35563;DHT22;21665;40.108;18.302;2023-04-19T21:59:34;10.40;99.90
35563;DHT22;21665;40.108;18.302;2023-04-19T22:02:00;10.40;99.90
35563;DHT22;21665;40.108;18.302;2023-04-19T22:04:27;10.40;99.90
35563;DHT22;21665;40.108;18.302;2023-04-19T22:06:57;10.40;99.90
35563;DHT22;21665;40.108;18.302;2023-04-19T22:09:28;10.40;99.90
35563;DHT22;21665;40.108;18.302;2023-04-19T22:11:55;10.40;99.90
35563;DHT22;21665;40.108;18.302;2023-04-19T22:14:22;10.40;99.90
35563;DHT22;21665;40.108;18.302;2023-04-19T22:16:49;10.30;99.90
35563;DHT22;21665;40.108;18.302;2023-04-19T22:19:15;10.30;99.90
35563;DHT22;21665;40.108;18.302;2023-04-19T22:21:41;10.20;99.90
35563;DHT22;21665;40.108;18.302;2023-04-19T22:24:08;10.20;99.90
35563;DHT22;21665;40.108;18.302;2023-04-19T22:26:34;10.20;99.90
35563;DHT22;21665;40.108;18.302;2023-04-19T22:29:01;10.10;99.90
35563;DHT22;21665;40.108;18.302;2023-04-19T22:34:17;10.00;99.90
35563;DHT22;21665;40.108;18.302;2023-04-19T22:36:46;10.00;99.90
35563;DHT22;21665;40.108;18.302;2023-04-19T22:39:13;10.00;99.90
35563;DHT22;21665;40.108;18.302;2023-04-19T22:41:40;9.90;99.90
35563;DHT22;21665;40.108;18.302;2023-04-19T22:44:07;9.90;99.90
35563;DHT22;21665;40.108;18.302;2023-04-19T22:46:36;9.90;99.90
35563;DHT22;21665;40.108;18.302;2023-04-19T22:49:02;9.90;99.90
35563;DHT22;21665;40.108;18.302;2023-04-19T22:51:28;9.90;99.90
35563;DHT22;21665;40.108;18.302;2023-04-19T22:53:55;9.90;99.90
35563;DHT22;21665;40.108;18.302;2023-04-19T22:56:21;9.90;99.90
35563;DHT22;21665;40.108;18.302;2023-04-19T22:58:47;9.80;99.90
35563;DHT22;21665;40.108;18.302;2023-04-19T23:01:17;9.80;99.90
35563;DHT22;21665;40.108;18.302;2023-04-19T23:03:43;9.80;99.90
35563;DHT22;21665;40.108;18.302;2023-04-19T23:06:10;9.80;99.90
35563;DHT22;21665;40.108;18.302;2023-04-19T23:08:43;9.80;99.90
35563;DHT22;21665;40.108;18.302;2023-04-19T23:11:12;9.80;99.90
35563;DHT22;21665;40.108;18.302;2023-04-19T23:13:39;9.80;99.90
35563;DHT22;21665;40.108;18.302;2023-04-19T23:16:09;9.70;99.90
35563;DHT22;21665;40.108;18.302;2023-04-19T23:18:37;9.70;99.90
35563;DHT22;21665;40.108;18.302;2023-04-19T23:21:05;9.70;99.90
35563;DHT22;21665;40.108;18.302;2023-04-19T23:23:33;9.60;99.90
35563;DHT22;21665;40.108;18.302;2023-04-19T23:25:59;9.60;99.90
35563;DHT22;21665;40.108;18.302;2023-04-19T23:28:25;9.50;99.90
35563;DHT22;21665;40.108;18.302;2023-04-19T23:30:52;9.50;99.90
35563;DHT22;21665;40.108;18.302;2023-04-19T23:33:18;9.50;99.90
35563;DHT22;21665;40.108;18.302;2023-04-19T23:35:45;9.40;99.90
35563;DHT22;21665;40.108;18.302;2023-04-19T23:38:11;9.40;99.90
35563;DHT22;21665;40.108;18.302;2023-04-19T23:40:37;9.40;99.90
35563;DHT22;21665;40.108;18.302;2023-04-19T23:43:05;9.30;99.90
35563;DHT22;21665;40.108;18.302;2023-04-19T23:45:32;9.30;99.90
35563;DHT22;21665;40.108;18.302;2023-04-19T23:47:58;9.30;99.90
35563;DHT22;21665;40.108;18.302;2023-04-19T23:50:25;9.30;99.90
35563;DHT22;21665;40.108;18.302;2023-04-19T23:52:51;9.30;99.90
35563;DHT22;21665;40.108;18.302;2023-04-19T23:55:18;9.20;99.90
35563;DHT22;21665;40.108;18.302;2023-04-19T23:57:44;9.20;99.90
